Time;durP1;ratioP1;P1;durP2;ratioP2;P2;SDS_P1;SDS_P2;PMS_P1;PMS_P2;Temp;Humidity;BMP_temperature;BMP_pressure;BME280_temperature;BME280_humidity;BME280_pressure;Samples;Min_cycle;Max_cycle;Signal;HPM_P1;HPM_P2
2022/06/30 00:01:26;;;;;;;;;;;;;;;26.97;45.73;100696.07;104936;1303;76099;-81
2022/06/30 00:03:51;;;;;;;;;;;;;;;26.97;45.93;100694.34;105286;1300;61371;-81
2022/06/30 00:06:17;;;;;;;;;;;;;;;26.97;45.79;100691.47;105163;1303;61269;-81
2022/06/30 00:08:42;;;;;;;;;;;;;;;26.97;45.63;100691.46;105158;1302;61249;-81
2022/06/30 00:11:08;;;;;;;;;;;;;;;26.97;45.90;100693.05;105193;1300;61245;-82
2022/06/30 00:13:34;;;;;;;;;;;;;;;26.97;45.87;100694.00;105239;1303;75584;-81
2022/06/30 00:16:00;;;;;;;;;;;;;;;26.96;45.99;100690.77;105289;1301;61150;-81
2022/06/30 00:18:25;;;;;;;;;;;;;;;26.96;46.13;100686.13;105136;1303;62466;-81
2022/06/30 00:20:51;;;;;;;;;;;;;;;26.96;45.72;100686.98;105239;1302;61268;-81
2022/06/30 00:23:17;;;;;;;;;;;;;;;26.96;45.89;100688.27;105230;1301;61386;-81
2022/06/30 00:25:43;;;;;;;;;;;;;;;26.96;46.08;100694.73;105290;1303;61274;-81
2022/06/30 00:28:08;;;;;;;;;;;;;;;26.96;46.03;100691.69;105232;1302;61131;-81
2022/06/30 00:30:34;;;;;;;;;;;;;;;26.96;45.78;100689.75;105248;1302;61402;-81
2022/06/30 00:32:59;;;;;;;;;;;;;;;26.96;45.98;100693.14;105161;1302;61444;-81
2022/06/30 00:35:24;;;;;;;;;;;;;;;26.96;46.02;100691.91;104919;1301;61361;-82
2022/06/30 00:37:50;;;;;;;;;;;;;;;26.96;46.13;100694.42;105200;1303;61266;-82
2022/06/30 00:40:16;;;;;;;;;;;;;;;26.96;46.07;100694.95;105186;1302;61249;-82
2022/06/30 00:42:41;;;;;;;;;;;;;;;26.96;46.18;100693.17;105269;1303;61153;-81
2022/06/30 00:45:07;;;;;;;;;;;;;;;26.96;46.05;100691.21;105241;1303;61322;-81
2022/06/30 00:47:33;;;;;;;;;;;;;;;26.96;46.15;100689.95;105223;1301;61195;-81
2022/06/30 00:49:58;;;;;;;;;;;;;;;26.95;46.00;100692.31;105165;1301;61285;-81
2022/06/30 00:52:24;;;;;;;;;;;;;;;26.95;46.23;100696.65;105213;1302;61428;-81
2022/06/30 00:54:49;;;;;;;;;;;;;;;26.95;46.02;100697.42;105231;1302;61276;-81
2022/06/30 00:57:14;;;;;;;;;;;;;;;26.95;46.33;100698.30;105176;1301;61409;-81
2022/06/30 00:59:40;;;;;;;;;;;;;;;26.95;46.27;100690.69;105233;1303;61233;-81
2022/06/30 01:02:05;;;;;;;;;;;;;;;26.95;46.21;100694.65;105208;1301;61459;-81
2022/06/30 01:04:32;;;;;;;;;;;;;;;26.95;46.16;100690.15;105186;1302;61248;-81
2022/06/30 01:06:57;;;;;;;;;;;;;;;26.95;46.39;100687.81;105241;1302;61124;-81
2022/06/30 01:12:53;;;;;;;;;;;;;;;26.95;46.33;100685.14;105217;1301;75837;-81
2022/06/30 01:14:53;;;;;;;;;;;;;;;26.95;46.14;100685.68;104946;1303;61307;-83
2022/06/30 01:17:18;;;;;;;;;;;;;;;26.95;46.46;100683.89;105206;1303;61356;-82
2022/06/30 01:19:54;;;;;;;;;;;;;;;26.95;46.43;100685.51;105246;1302;61374;-82
2022/06/30 01:22:19;;;;;;;;;;;;;;;26.94;46.37;100681.92;105074;1303;74884;-82
2022/06/30 01:24:45;;;;;;;;;;;;;;;26.95;46.20;100680.46;105258;1302;61381;-82
2022/06/30 01:27:11;;;;;;;;;;;;;;;26.94;46.16;100680.87;105268;1302;61294;-82
2022/06/30 01:29:37;;;;;;;;;;;;;;;26.94;46.48;100680.13;105165;1303;61387;-82
2022/06/30 01:32:04;;;;;;;;;;;;;;;26.95;46.36;100681.55;105158;1301;61792;-82
2022/06/30 01:34:29;;;;;;;;;;;;;;;26.94;46.21;100683.74;105190;1303;61237;-82
2022/06/30 01:36:54;;;;;;;;;;;;;;;26.94;46.20;100684.65;105172;1301;61288;-82
2022/06/30 01:39:20;;;;;;;;;;;;;;;26.94;46.49;100684.31;105219;1302;61272;-82
2022/06/30 01:41:45;;;;;;;;;;;;;;;26.94;46.49;100683.95;105190;1302;61203;-82
2022/06/30 01:44:11;;;;;;;;;;;;;;;26.94;46.46;100678.16;105219;1302;61271;-82
2022/06/30 01:46:37;;;;;;;;;;;;;;;26.93;46.44;100676.76;105258;1303;61242;-82
2022/06/30 01:49:03;;;;;;;;;;;;;;;26.94;46.73;100680.54;105161;1302;61244;-82
2022/06/30 01:51:28;;;;;;;;;;;;;;;26.93;46.46;100678.72;105159;1303;61256;-81
2022/06/30 01:53:53;;;;;;;;;;;;;;;26.93;46.71;100678.56;105234;1303;73792;-81
2022/06/30 01:56:19;;;;;;;;;;;;;;;26.93;46.69;100678.39;105153;1301;61269;-81
2022/06/30 01:58:45;;;;;;;;;;;;;;;26.93;46.62;100675.14;105270;1303;61356;-81
2022/06/30 02:01:10;;;;;;;;;;;;;;;26.93;46.63;100674.63;105182;1301;61290;-81
2022/06/30 02:03:36;;;;;;;;;;;;;;;26.93;46.75;100671.21;105217;1303;61262;-81
2022/06/30 02:06:01;;;;;;;;;;;;;;;26.93;46.77;100667.08;105234;1303;73808;-81
2022/06/30 02:08:26;;;;;;;;;;;;;;;26.93;46.89;100676.09;105241;1303;61345;-81
2022/06/30 02:10:52;;;;;;;;;;;;;;;26.92;46.82;100675.73;105167;1302;61298;-81
2022/06/30 02:13:18;;;;;;;;;;;;;;;26.92;46.74;100668.91;105176;1301;61304;-81
2022/06/30 02:15:44;;;;;;;;;;;;;;;26.92;46.63;100667.64;105261;1303;61294;-81
2022/06/30 02:18:09;;;;;;;;;;;;;;;26.92;46.73;100667.11;105300;1302;61239;-81
2022/06/30 02:20:35;;;;;;;;;;;;;;;26.93;46.73;100664.91;105265;1302;72652;-81
2022/06/30 02:23:01;;;;;;;;;;;;;;;26.92;46.94;100663.69;105262;1303;61302;-81
2022/06/30 02:25:27;;;;;;;;;;;;;;;26.92;46.92;100661.69;104936;1303;61259;-81
2022/06/30 02:27:53;;;;;;;;;;;;;;;26.92;46.81;100661.35;105220;1302;61244;-81
2022/06/30 02:30:18;;;;;;;;;;;;;;;26.92;46.94;100659.73;105153;1302;61278;-81
2022/06/30 02:32:44;;;;;;;;;;;;;;;26.92;46.90;100664.59;105283;1301;61242;-81
2022/06/30 02:35:09;;;;;;;;;;;;;;;26.92;47.04;100665.85;105307;1301;61221;-82
2022/06/30 02:37:36;;;;;;;;;;;;;;;26.92;47.09;100664.63;105135;1303;61170;-81
2022/06/30 02:40:02;;;;;;;;;;;;;;;26.92;46.60;100672.90;105250;1303;61205;-81
2022/06/30 02:42:27;;;;;;;;;;;;;;;26.92;46.94;100671.84;105210;1301;61344;-81
2022/06/30 02:44:53;;;;;;;;;;;;;;;26.92;46.73;100675.29;105137;1302;61275;-81
2022/06/30 02:47:18;;;;;;;;;;;;;;;26.92;46.69;100674.01;105274;1302;61304;-81
2022/06/30 02:49:44;;;;;;;;;;;;;;;26.92;46.88;100674.59;105297;1302;61280;-81
2022/06/30 02:52:09;;;;;;;;;;;;;;;26.92;47.03;100677.08;105283;1302;61249;-81
2022/06/30 02:54:36;;;;;;;;;;;;;;;26.92;46.88;100677.64;105252;1302;61154;-81
2022/06/30 02:57:01;;;;;;;;;;;;;;;26.92;46.83;100686.31;105162;1301;61295;-81
2022/06/30 02:59:26;;;;;;;;;;;;;;;26.91;46.85;100685.79;105251;1300;61373;-81
2022/06/30 03:01:52;;;;;;;;;;;;;;;26.92;46.92;100688.46;105277;1302;61288;-81
2022/06/30 03:04:18;;;;;;;;;;;;;;;26.92;47.06;100685.39;105292;1303;61253;-81
2022/06/30 03:06:43;;;;;;;;;;;;;;;26.92;47.00;100687.18;105154;1303;61352;-81
2022/06/30 03:09:09;;;;;;;;;;;;;;;26.92;47.04;100683.96;105145;1303;61291;-82
2022/06/30 03:11:36;;;;;;;;;;;;;;;26.92;47.09;100679.23;105271;1303;61277;-82
2022/06/30 03:14:01;;;;;;;;;;;;;;;26.92;47.10;100678.15;105146;1302;61259;-81
2022/06/30 03:16:27;;;;;;;;;;;;;;;26.92;46.92;100681.23;105175;1300;61723;-81
2022/06/30 03:18:52;;;;;;;;;;;;;;;26.92;47.06;100677.61;105139;1303;61260;-81
2022/06/30 03:21:18;;;;;;;;;;;;;;;26.92;47.33;100680.14;105106;1302;61268;-81
2022/06/30 03:23:44;;;;;;;;;;;;;;;26.92;47.20;100680.53;105171;1302;61334;-81
2022/06/30 03:26:10;;;;;;;;;;;;;;;26.92;47.12;100684.67;105147;1303;61303;-81
2022/06/30 03:28:35;;;;;;;;;;;;;;;26.91;47.06;100685.98;105101;1301;61275;-81
2022/06/30 03:31:01;;;;;;;;;;;;;;;26.91;47.17;100684.92;105206;1302;61249;-82
2022/06/30 03:33:26;;;;;;;;;;;;;;;26.91;47.38;100686.20;105171;1301;61362;-81
2022/06/30 03:35:52;;;;;;;;;;;;;;;26.90;47.05;100688.98;105131;1303;61395;-81
2022/06/30 03:38:17;;;;;;;;;;;;;;;26.90;47.07;100694.23;105087;1302;61396;-81
2022/06/30 03:40:43;;;;;;;;;;;;;;;26.90;47.14;100693.35;105187;1301;60007;-82
2022/06/30 03:43:08;;;;;;;;;;;;;;;26.90;47.20;100694.84;105127;1302;61332;-82
2022/06/30 03:45:34;;;;;;;;;;;;;;;26.89;47.17;100696.31;105169;1303;61253;-82
2022/06/30 03:48:00;;;;;;;;;;;;;;;26.89;47.05;100703.36;105155;1303;61220;-81
2022/06/30 03:50:25;;;;;;;;;;;;;;;26.89;47.18;100709.70;105200;1303;61125;-82
2022/06/30 03:52:51;;;;;;;;;;;;;;;26.88;47.13;100708.48;105205;1301;61238;-81
2022/06/30 03:55:17;;;;;;;;;;;;;;;26.88;47.00;100703.98;104902;1303;61285;-81
2022/06/30 03:57:42;;;;;;;;;;;;;;;26.88;47.15;100703.10;105153;1303;61259;-81
2022/06/30 04:00:10;;;;;;;;;;;;;;;26.88;47.04;100704.70;105200;1302;61278;-81
2022/06/30 04:02:36;;;;;;;;;;;;;;;26.88;47.21;100703.67;105076;1303;73830;-81
2022/06/30 04:05:01;;;;;;;;;;;;;;;26.88;47.24;100704.72;105141;1303;61409;-81
2022/06/30 04:07:27;;;;;;;;;;;;;;;26.87;47.14;100705.52;105187;1301;61275;-82
2022/06/30 04:09:52;;;;;;;;;;;;;;;26.88;47.26;100704.73;105105;1301;61241;-81
2022/06/30 04:12:18;;;;;;;;;;;;;;;26.88;47.09;100705.52;105226;1302;61266;-81
2022/06/30 04:14:43;;;;;;;;;;;;;;;26.88;47.19;100708.73;105147;1303;61352;-81
2022/06/30 04:17:09;;;;;;;;;;;;;;;26.87;47.29;100712.55;105124;1302;61767;-81
2022/06/30 04:19:34;;;;;;;;;;;;;;;26.88;47.22;100713.93;105172;1302;61369;-81
2022/06/30 04:22:00;;;;;;;;;;;;;;;26.88;47.00;100720.41;105170;1302;61239;-82
2022/06/30 04:24:25;;;;;;;;;;;;;;;26.88;47.42;100723.67;105229;1302;61240;-81
2022/06/30 04:26:51;;;;;;;;;;;;;;;26.89;47.25;100727.45;105073;1302;72763;-82
2022/06/30 04:29:16;;;;;;;;;;;;;;;26.89;47.21;100726.65;104903;1302;61317;-82
2022/06/30 04:34:26;;;;;;;;;;;;;;;26.90;47.15;100720.80;104775;1302;61083;-82
2022/06/30 04:36:51;;;;;;;;;;;;;;;26.91;47.32;100718.70;104760;1302;61375;-82
2022/06/30 04:39:17;;;;;;;;;;;;;;;26.92;47.17;100718.63;104812;1302;61253;-82
2022/06/30 04:41:42;;;;;;;;;;;;;;;26.92;47.26;100719.29;104939;1302;61254;-82
2022/06/30 04:44:08;;;;;;;;;;;;;;;26.93;47.37;100722.46;105141;1302;61236;-82
2022/06/30 04:46:34;;;;;;;;;;;;;;;26.95;47.48;100721.80;104911;1302;61378;-81
2022/06/30 04:48:59;;;;;;;;;;;;;;;26.96;47.28;100720.29;104960;1300;61382;-81
2022/06/30 04:51:25;;;;;;;;;;;;;;;26.96;47.36;100718.04;105165;1302;61769;-81
2022/06/30 04:53:50;;;;;;;;;;;;;;;26.97;47.43;100715.94;105198;1302;61313;-81
2022/06/30 04:56:17;;;;;;;;;;;;;;;26.99;47.17;100713.48;105180;1302;61365;-81
2022/06/30 04:58:43;;;;;;;;;;;;;;;26.99;47.55;100712.92;104960;1300;61287;-81
2022/06/30 05:01:08;;;;;;;;;;;;;;;27.00;47.30;100712.13;105178;1301;61270;-81
2022/06/30 05:03:34;;;;;;;;;;;;;;;27.01;47.36;100712.73;105150;1302;61240;-81
2022/06/30 05:05:59;;;;;;;;;;;;;;;27.01;47.51;100715.89;104949;1302;61309;-81
2022/06/30 05:08:25;;;;;;;;;;;;;;;27.02;47.41;100719.41;105015;1302;61362;-81
2022/06/30 05:10:50;;;;;;;;;;;;;;;27.03;47.23;100714.48;104943;1302;61252;-82
2022/06/30 05:13:16;;;;;;;;;;;;;;;27.04;47.34;100713.33;105184;1302;61292;-81
2022/06/30 05:15:42;;;;;;;;;;;;;;;27.05;47.51;100715.02;105129;1302;61302;-81
2022/06/30 05:18:08;;;;;;;;;;;;;;;27.05;47.25;100721.84;105156;1302;62015;-81
2022/06/30 05:20:33;;;;;;;;;;;;;;;27.05;47.36;100718.39;105169;1302;61249;-81
2022/06/30 05:22:59;;;;;;;;;;;;;;;27.06;47.59;100722.83;104958;1302;61271;-81
2022/06/30 05:28:08;;;;;;;;;;;;;;;27.07;47.72;100722.20;104999;1302;74636;-81
2022/06/30 05:30:34;;;;;;;;;;;;;;;27.08;47.53;100722.67;105016;1302;61266;-81
2022/06/30 05:32:59;;;;;;;;;;;;;;;27.08;47.64;100725.86;104997;1302;61402;-81
2022/06/30 05:35:25;;;;;;;;;;;;;;;27.09;47.71;100724.92;105171;1301;61394;-81
2022/06/30 05:37:51;;;;;;;;;;;;;;;27.10;47.82;100729.51;104988;1302;61238;-81
2022/06/30 05:40:16;;;;;;;;;;;;;;;27.10;47.73;100731.10;104973;1303;61269;-81
2022/06/30 05:42:42;;;;;;;;;;;;;;;27.11;47.64;100725.25;105163;1301;61400;-81
2022/06/30 05:45:07;;;;;;;;;;;;;;;27.12;47.77;100727.53;105152;1300;61342;-81
2022/06/30 05:47:33;;;;;;;;;;;;;;;27.13;47.66;100730.54;105146;1302;61352;-81
2022/06/30 05:49:59;;;;;;;;;;;;;;;27.14;47.79;100730.05;105151;1302;61249;-81
2022/06/30 05:52:24;;;;;;;;;;;;;;;27.15;47.76;100733.05;105212;1302;61276;-81
2022/06/30 05:54:49;;;;;;;;;;;;;;;27.17;47.63;100732.46;104960;1301;61425;-81
2022/06/30 05:57:15;;;;;;;;;;;;;;;27.18;47.73;100730.23;105192;1301;61297;-81
2022/06/30 05:59:40;;;;;;;;;;;;;;;27.18;47.92;100733.56;105164;1302;61304;-81
2022/06/30 06:02:06;;;;;;;;;;;;;;;27.20;47.84;100737.20;105133;1302;61226;-81
2022/06/30 06:04:33;;;;;;;;;;;;;;;27.21;47.76;100735.33;105174;1301;61284;-81
2022/06/30 06:06:59;;;;;;;;;;;;;;;27.22;47.80;100742.27;104988;1302;61265;-81
2022/06/30 06:09:24;;;;;;;;;;;;;;;27.22;47.91;100744.73;105009;1302;61287;-81
2022/06/30 06:11:49;;;;;;;;;;;;;;;27.23;47.65;100743.21;105204;1302;61917;-81
2022/06/30 06:14:15;;;;;;;;;;;;;;;27.25;47.78;100746.85;104936;1302;61400;-82
2022/06/30 06:16:41;;;;;;;;;;;;;;;27.25;47.93;100747.50;104961;1302;61249;-82
2022/06/30 06:19:06;;;;;;;;;;;;;;;27.27;47.74;100748.44;104987;1302;61270;-82
2022/06/30 06:21:34;;;;;;;;;;;;;;;27.28;47.80;100748.89;104988;1302;61647;-82
2022/06/30 06:24:00;;;;;;;;;;;;;;;27.30;47.68;100749.65;104954;1302;72895;-82
2022/06/30 06:26:25;;;;;;;;;;;;;;;27.30;47.80;100746.48;104947;1302;61478;-82
2022/06/30 06:29:06;;;;;;;;;;;;;;;27.32;47.59;100746.55;104678;1302;637630;-81
2022/06/30 06:31:33;;;;;;;;;;;;;;;27.33;47.55;100746.44;105202;1302;61367;-81
2022/06/30 06:33:59;;;;;;;;;;;;;;;27.33;47.71;100745.45;105188;1302;61289;-81
2022/06/30 06:36:25;;;;;;;;;;;;;;;27.34;47.54;100752.61;105187;1302;61966;-81
2022/06/30 06:38:51;;;;;;;;;;;;;;;27.35;47.69;100753.77;105166;1302;61305;-81
2022/06/30 06:41:20;;;;;;;;;;;;;;;27.36;47.68;100757.48;104987;1302;61278;-81
2022/06/30 06:43:48;;;;;;;;;;;;;;;27.37;47.65;100755.21;104956;1302;73704;-81
2022/06/30 06:46:14;;;;;;;;;;;;;;;27.37;47.61;100754.52;105021;1302;75552;-82
2022/06/30 06:48:39;;;;;;;;;;;;;;;27.37;47.50;100758.66;104975;1302;62033;-80
2022/06/30 06:51:05;;;;;;;;;;;;;;;27.37;47.60;100755.48;104924;1302;61314;-81
2022/06/30 06:53:30;;;;;;;;;;;;;;;27.37;47.48;100747.66;105070;1301;61278;-82
2022/06/30 06:55:56;;;;;;;;;;;;;;;27.38;47.54;100748.31;104979;1302;59288;-82
2022/06/30 06:58:22;;;;;;;;;;;;;;;27.38;47.44;100747.34;104999;1302;61378;-82
2022/06/30 07:00:47;;;;;;;;;;;;;;;27.39;47.25;100752.02;105009;1302;61364;-82
2022/06/30 07:03:13;;;;;;;;;;;;;;;27.39;47.47;100752.14;105170;1302;61253;-81
2022/06/30 07:05:39;;;;;;;;;;;;;;;27.40;47.22;100754.10;105008;1302;61368;-82
2022/06/30 07:08:05;;;;;;;;;;;;;;;27.40;47.24;100752.08;105052;1302;61137;-82
2022/06/30 07:10:30;;;;;;;;;;;;;;;27.40;46.96;100745.59;105006;1302;61336;-82
2022/06/30 07:12:55;;;;;;;;;;;;;;;27.39;46.92;100750.67;105077;1302;61281;-82
2022/06/30 07:15:24;;;;;;;;;;;;;;;27.39;47.14;100743.15;105153;1302;61277;-81
2022/06/30 07:17:50;;;;;;;;;;;;;;;27.39;47.12;100743.15;104849;1303;73075;-82
2022/06/30 07:20:15;;;;;;;;;;;;;;;27.40;47.05;100741.80;104858;1302;61267;-82
2022/06/30 07:22:41;;;;;;;;;;;;;;;27.41;47.04;100739.70;105000;1302;61298;-82
2022/06/30 07:25:07;;;;;;;;;;;;;;;27.41;46.83;100742.19;104805;1302;61361;-82
2022/06/30 07:27:32;;;;;;;;;;;;;;;27.41;46.92;100745.74;104853;1302;61332;-82
2022/06/30 07:29:58;;;;;;;;;;;;;;;27.41;46.99;100746.77;104896;1302;61316;-82
2022/06/30 07:32:23;;;;;;;;;;;;;;;27.42;46.92;100745.38;104748;1302;61290;-82
2022/06/30 07:34:49;;;;;;;;;;;;;;;27.43;46.92;100743.28;104801;1302;61380;-82
2022/06/30 07:37:14;;;;;;;;;;;;;;;27.43;46.78;100742.15;104769;1302;61301;-82
2022/06/30 07:39:40;;;;;;;;;;;;;;;27.43;46.55;100738.52;104919;1302;61275;-82
2022/06/30 07:42:05;;;;;;;;;;;;;;;27.44;46.54;100738.11;105062;1302;61255;-82
2022/06/30 07:44:31;;;;;;;;;;;;;;;27.46;46.64;100739.59;105003;1303;61099;-82
2022/06/30 07:46:56;;;;;;;;;;;;;;;27.47;46.65;100735.13;104939;1302;61400;-82
2022/06/30 07:49:22;;;;;;;;;;;;;;;27.47;46.57;100733.54;104877;1302;61281;-83
2022/06/30 07:51:48;;;;;;;;;;;;;;;27.46;46.62;100736.27;104956;1302;61298;-82
2022/06/30 07:54:14;;;;;;;;;;;;;;;27.45;46.66;100735.48;104819;1302;61293;-82
2022/06/30 07:56:40;;;;;;;;;;;;;;;27.44;46.31;100731.20;104888;1302;61284;-82
2022/06/30 07:59:05;;;;;;;;;;;;;;;27.43;46.36;100729.88;104863;1302;61284;-82
2022/06/30 08:01:31;;;;;;;;;;;;;;;27.43;46.44;100728.44;104838;1302;61311;-82
2022/06/30 08:03:57;;;;;;;;;;;;;;;27.43;46.61;100725.94;104852;1302;61343;-82
2022/06/30 08:06:24;;;;;;;;;;;;;;;27.45;46.53;100726.30;104920;1302;61441;-82
2022/06/30 08:08:50;;;;;;;;;;;;;;;27.47;46.16;100722.52;104821;1302;61169;-82
2022/06/30 08:11:15;;;;;;;;;;;;;;;27.46;46.53;100727.41;105013;1302;61377;-82
2022/06/30 08:13:53;;;;;;;;;;;;;;;27.48;46.28;100730.94;104989;1303;61258;-84
2022/06/30 08:16:18;;;;;;;;;;;;;;;27.48;46.25;100728.02;104769;1302;73951;-82
2022/06/30 08:18:44;;;;;;;;;;;;;;;27.48;46.23;100731.07;104765;1302;61275;-82
2022/06/30 08:21:10;;;;;;;;;;;;;;;27.48;46.06;100727.45;104726;1303;61759;-82
2022/06/30 08:23:36;;;;;;;;;;;;;;;27.49;46.01;100733.08;104682;1302;59396;-82
2022/06/30 08:26:02;;;;;;;;;;;;;;;27.50;45.93;100727.27;104750;1302;61327;-82
2022/06/30 08:28:28;;;;;;;;;;;;;;;27.50;45.90;100725.64;104940;1302;61427;-82
2022/06/30 08:30:53;;;;;;;;;;;;;;;27.50;45.84;100729.91;104983;1302;61361;-82
2022/06/30 08:33:18;;;;;;;;;;;;;;;27.50;45.62;100726.11;105106;1302;61259;-82
2022/06/30 08:35:44;;;;;;;;;;;;;;;27.50;45.52;100725.09;104993;1303;61272;-82
2022/06/30 08:38:09;;;;;;;;;;;;;;;27.48;45.62;100723.08;105026;1302;61305;-82
2022/06/30 08:43:19;;;;;;;;;;;;;;;27.47;45.78;100727.75;105031;1302;61282;-82
2022/06/30 08:45:45;;;;;;;;;;;;;;;27.45;45.89;100715.77;105203;1302;61252;-82
2022/06/30 08:48:10;;;;;;;;;;;;;;;27.45;45.92;100720.67;105208;1303;61259;-82
2022/06/30 08:50:35;;;;;;;;;;;;;;;27.46;45.73;100720.98;105021;1302;61475;-82
2022/06/30 08:53:02;;;;;;;;;;;;;;;27.45;45.65;100724.50;104988;1302;61406;-82
2022/06/30 08:55:28;;;;;;;;;;;;;;;27.45;45.44;100718.70;105035;1302;61163;-82
2022/06/30 08:57:55;;;;;;;;;;;;;;;27.45;45.49;100719.81;105153;1302;61371;-82
2022/06/30 09:00:20;;;;;;;;;;;;;;;27.44;45.31;100721.31;104962;1302;74945;-82
2022/06/30 09:02:46;;;;;;;;;;;;;;;27.43;45.42;100720.48;105165;1303;61394;-82
2022/06/30 09:05:12;;;;;;;;;;;;;;;27.41;45.57;100716.10;104961;1303;61200;-82
2022/06/30 09:07:38;;;;;;;;;;;;;;;27.41;45.53;100713.41;104986;1303;61180;-82
2022/06/30 09:10:05;;;;;;;;;;;;;;;27.41;45.51;100717.48;104863;1302;61727;-82
2022/06/30 09:12:30;;;;;;;;;;;;;;;27.41;45.61;100712.42;104925;1302;61227;-82
2022/06/30 09:14:56;;;;;;;;;;;;;;;27.40;45.54;100712.66;104752;1303;61355;-82
2022/06/30 09:17:22;;;;;;;;;;;;;;;27.40;45.72;100710.32;104631;1303;61317;-82
2022/06/30 09:19:52;;;;;;;;;;;;;;;27.40;45.59;100709.98;104900;1303;61327;-82
2022/06/30 09:22:17;;;;;;;;;;;;;;;27.40;45.64;100713.40;104905;1302;73041;-82
2022/06/30 09:24:43;;;;;;;;;;;;;;;27.39;45.81;100712.53;104762;1303;61313;-82
2022/06/30 09:27:19;;;;;;;;;;;;;;;27.40;45.61;100711.79;105038;1303;61895;-82
2022/06/30 09:29:55;;;;;;;;;;;;;;;27.40;45.56;100712.12;105015;1302;62037;-82
2022/06/30 09:32:20;;;;;;;;;;;;;;;27.40;45.59;100708.16;104899;1302;74846;-82
2022/06/30 09:34:47;;;;;;;;;;;;;;;27.40;45.68;100704.73;104901;1302;61276;-82
2022/06/30 09:37:30;;;;;;;;;;;;;;;27.39;45.52;100700.26;104993;1302;61272;-82
2022/06/30 09:39:57;;;;;;;;;;;;;;;27.39;45.60;100697.00;104836;1303;61207;-82
2022/06/30 09:42:39;;;;;;;;;;;;;;;27.39;45.64;100700.99;105000;1302;72812;-82
2022/06/30 09:45:05;;;;;;;;;;;;;;;27.39;45.62;100703.37;105030;1302;75658;-82
2022/06/30 09:47:30;;;;;;;;;;;;;;;27.39;45.75;100694.72;105186;1303;61092;-82
2022/06/30 09:49:59;;;;;;;;;;;;;;;27.38;45.47;100692.98;105043;1302;61717;-82
2022/06/30 09:52:25;;;;;;;;;;;;;;;27.38;45.53;100694.45;104938;1303;74675;-82
2022/06/30 09:55:00;;;;;;;;;;;;;;;27.38;45.95;100695.93;104950;1301;61417;-82
2022/06/30 09:57:27;;;;;;;;;;;;;;;27.37;45.54;100693.42;105008;1301;61284;-82
2022/06/30 10:00:07;;;;;;;;;;;;;;;27.38;45.72;100691.22;104895;1303;61437;-82
2022/06/30 10:02:36;;;;;;;;;;;;;;;27.37;45.78;100692.18;104955;1303;72790;-82
2022/06/30 10:05:03;;;;;;;;;;;;;;;27.36;45.60;100689.00;104972;1303;74629;-82
2022/06/30 10:07:29;;;;;;;;;;;;;;;27.37;45.84;100688.77;105049;1303;61312;-82
2022/06/30 10:09:54;;;;;;;;;;;;;;;27.37;45.97;100689.44;105124;1301;61280;-82
2022/06/30 10:12:20;;;;;;;;;;;;;;;27.37;45.82;100681.73;104987;1303;60682;-82
2022/06/30 10:14:46;;;;;;;;;;;;;;;27.37;45.92;100679.51;105096;1302;61393;-82
2022/06/30 10:17:14;;;;;;;;;;;;;;;27.37;46.09;100682.61;105101;1303;61314;-82
2022/06/30 10:19:39;;;;;;;;;;;;;;;27.37;45.79;100676.45;105118;1302;61313;-81
2022/06/30 10:22:05;;;;;;;;;;;;;;;27.37;46.01;100677.73;105069;1303;61348;-81
2022/06/30 10:24:30;;;;;;;;;;;;;;;27.37;45.75;100677.36;105189;1303;61227;-82
2022/06/30 10:27:12;;;;;;;;;;;;;;;27.36;45.77;100675.23;105201;1303;61266;-81
2022/06/30 10:29:40;;;;;;;;;;;;;;;27.36;45.82;100674.54;104986;1303;61190;-81
2022/06/30 10:32:08;;;;;;;;;;;;;;;27.36;45.77;100670.58;105181;1303;61721;-81
2022/06/30 10:34:39;;;;;;;;;;;;;;;27.35;45.89;100669.55;105150;1301;73744;-81
2022/06/30 10:37:10;;;;;;;;;;;;;;;27.35;45.82;100663.98;105123;1303;75786;-82
2022/06/30 10:39:45;;;;;;;;;;;;;;;27.35;45.79;100660.20;105263;1303;61240;-81
2022/06/30 10:42:23;;;;;;;;;;;;;;;27.35;45.89;100653.71;105247;1303;61179;-81
2022/06/30 10:44:48;;;;;;;;;;;;;;;27.34;45.93;100651.27;105119;1303;73621;-81
2022/06/30 10:47:14;;;;;;;;;;;;;;;27.34;45.75;100655.95;105250;1303;61278;-81
2022/06/30 10:49:53;;;;;;;;;;;;;;;27.33;45.96;100652.77;105252;1301;61224;-81
2022/06/30 10:52:23;;;;;;;;;;;;;;;27.34;45.66;100648.77;105247;1302;61530;-81
2022/06/30 10:54:48;;;;;;;;;;;;;;;27.33;45.75;100641.92;105264;1303;73724;-81
2022/06/30 10:57:16;;;;;;;;;;;;;;;27.33;45.77;100636.50;105111;1303;61213;-81
2022/06/30 10:59:42;;;;;;;;;;;;;;;27.33;45.75;100633.80;105251;1302;61173;-82
2022/06/30 11:02:08;;;;;;;;;;;;;;;27.33;45.49;100632.74;105197;1303;61220;-81
2022/06/30 11:04:34;;;;;;;;;;;;;;;27.33;45.49;100627.39;105245;1302;61382;-81
2022/06/30 11:07:12;;;;;;;;;;;;;;;27.33;45.50;100624.85;105229;1301;61278;-81
2022/06/30 11:09:44;;;;;;;;;;;;;;;27.33;45.62;100619.39;105244;1302;61247;-81
2022/06/30 11:12:10;;;;;;;;;;;;;;;27.33;45.48;100616.71;105189;1302;61275;-81
2022/06/30 11:14:36;;;;;;;;;;;;;;;27.32;45.42;100612.23;105123;1302;72636;-81
2022/06/30 11:17:12;;;;;;;;;;;;;;;27.33;45.33;100613.84;105129;1303;61384;-81
2022/06/30 11:19:37;;;;;;;;;;;;;;;27.32;45.22;100605.90;105159;1303;61183;-81
2022/06/30 11:22:03;;;;;;;;;;;;;;;27.32;45.43;100607.16;105184;1302;61225;-81
2022/06/30 11:24:29;;;;;;;;;;;;;;;27.33;45.19;100608.56;105201;1302;61220;-82
2022/06/30 11:29:38;;;;;;;;;;;;;;;27.33;45.19;100604.42;105259;1301;61271;-81
2022/06/30 11:32:04;;;;;;;;;;;;;;;27.33;45.30;100601.88;105228;1303;61394;-81
2022/06/30 11:34:31;;;;;;;;;;;;;;;27.33;45.16;100601.33;105108;1303;61957;-81
2022/06/30 11:36:57;;;;;;;;;;;;;;;27.33;45.09;100599.91;105158;1303;61154;-81
2022/06/30 11:39:22;;;;;;;;;;;;;;;27.33;45.00;100597.91;105151;1303;61357;-81
2022/06/30 11:41:55;;;;;;;;;;;;;;;27.33;45.14;100600.38;105203;1303;61304;-81
2022/06/30 11:44:25;;;;;;;;;;;;;;;27.33;45.00;100602.05;105118;1303;73693;-81
2022/06/30 11:46:51;;;;;;;;;;;;;;;27.34;44.94;100607.40;105192;1300;75563;-81
2022/06/30 11:49:17;;;;;;;;;;;;;;;27.33;45.03;100610.89;105123;1302;61361;-81
2022/06/30 11:51:43;;;;;;;;;;;;;;;27.33;45.14;100607.77;105224;1303;61235;-81
2022/06/30 11:54:08;;;;;;;;;;;;;;;27.34;45.06;100611.13;105088;1303;61268;-81
2022/06/30 11:56:51;;;;;;;;;;;;;;;27.34;44.97;100606.66;105104;1303;61393;-81
2022/06/30 11:59:16;;;;;;;;;;;;;;;27.34;45.00;100604.60;105245;1303;61716;-82
2022/06/30 12:01:42;;;;;;;;;;;;;;;27.34;45.12;100602.27;104856;1302;62961;-82
2022/06/30 12:04:17;;;;;;;;;;;;;;;27.35;44.72;100597.52;105000;1301;61285;-82
2022/06/30 12:06:42;;;;;;;;;;;;;;;27.35;44.99;100598.56;105046;1301;75936;-82
2022/06/30 12:09:08;;;;;;;;;;;;;;;27.35;45.13;100595.46;104905;1303;61278;-82
2022/06/30 12:11:37;;;;;;;;;;;;;;;27.36;44.98;100592.68;105050;1300;61255;-81
2022/06/30 12:14:02;;;;;;;;;;;;;;;27.36;44.67;100587.04;105070;1302;72027;-82
2022/06/30 12:16:28;;;;;;;;;;;;;;;27.37;44.78;100579.11;105176;1303;61258;-82
2022/06/30 12:18:54;;;;;;;;;;;;;;;27.37;44.67;100570.77;105167;1302;61293;-82
2022/06/30 12:21:20;;;;;;;;;;;;;;;27.38;44.83;100570.67;105202;1301;61339;-81
2022/06/30 12:23:45;;;;;;;;;;;;;;;27.38;44.67;100569.55;105120;1302;61255;-82
2022/06/30 12:26:11;;;;;;;;;;;;;;;27.38;44.55;100567.52;105069;1302;61410;-82
2022/06/30 12:28:46;;;;;;;;;;;;;;;27.39;44.47;100565.86;104921;1302;75648;-81
2022/06/30 12:31:22;;;;;;;;;;;;;;;27.39;44.55;100564.23;105166;1302;61288;-81
2022/06/30 12:33:47;;;;;;;;;;;;;;;27.39;44.28;100557.58;105187;1302;61253;-82
2022/06/30 12:36:16;;;;;;;;;;;;;;;27.40;44.25;100558.39;104993;1302;61273;-82